Terminal Aerodrome Forecast
Issued by NWS

Home | Current Version | Previous Version | Text Only | Print | Product List | Glossary On
Versions: 1 2 3 4 5 6 7 8 9 10 11 12 13 14 15 16
000
FTUS44 KCRP 042329
TAFLRD
TAF
KLRD 042329Z 0500/0524 13011KT P6SM VCSH SCT080
     FM050200 14015G22KT P6SM SCT040
     FM050700 15007KT P6SM SCT015
      TEMPO 0510/0514 BKN015
     FM051430 15014KT P6SM SCT050=

USA.gov is the U.S. government's official web portal to all federal, state and local government web resources and services.